Itanhaem, Brazil
Current Conditions -  °F | °C
As of 4:00 PM on Thursday 27 Nov 2014 (Local Time) from SBST Reporting Station
Broken Clouds Broken Clouds  
Wind Chill: 75°   Ceiling: 2200
Heat Index: 75°   Visibility: 6mi
Dew Point: 68°   Wind: 0mph
Humidity: 78%   Direction: NA
Pressure: 29.88"   Gusts: NA
Location:  24.18°S, 46.8°W
Report Text: SBST 271800Z 00000KT 9999 BKN022 BKN045 24/20 Q1012
Loading
Personal Weather Stations






























Interactive Weather Map New forecast layout! Learn more

10-Day Weather Forecast

Advertisements
Track Severe Weather on mobile